Terminal Aerodrome Forecast
Issued by NWS

Home | Current Version | Previous Version | Text Only | Print | Product List | Glossary On
Versions: 1 2 3 4 5 6 7 8 9 10 11 12 13 14 15 16 17 18 19 20 21 22
000
FTUS42 KKEY 281931 AAA
TAFMTH
TAF AMD
KMTH 281931Z 2820/0118 10010G16KT P6SM FEW015 SCT090
     FM010100 09012G20KT P6SM SCT015 SCT090=

USA.gov is the U.S. government's official web portal to all federal, state and local government web resources and services.